createdAt,value
2017-07-20T07:30:47.095Z,23.40
2017-07-20T07:33:15.106Z,24.00
2017-07-20T07:35:42.654Z,23.90
2017-07-20T07:38:10.211Z,23.70
2017-07-20T07:40:37.831Z,24.30
2017-07-20T07:43:05.374Z,24.70
2017-07-20T07:45:33.007Z,25.60
2017-07-20T07:48:00.548Z,25.60
2017-07-20T07:50:28.081Z,25.60
2017-07-20T07:52:55.635Z,25.80
2017-07-20T07:55:23.205Z,25.20
2017-07-20T07:57:50.769Z,25.30
2017-07-20T08:00:19.088Z,24.90
2017-07-20T08:02:46.639Z,24.80
2017-07-20T08:05:14.201Z,25.00
2017-07-20T08:07:42.870Z,25.70
2017-07-20T08:10:10.439Z,25.60
2017-07-20T08:12:37.974Z,25.50
2017-07-20T08:15:06.325Z,25.80
2017-07-20T08:17:33.854Z,25.80
2017-07-20T08:20:01.417Z,26.10
2017-07-20T08:22:28.954Z,26.80
2017-07-20T09:29:28.103Z,26.40
2017-07-20T09:34:24.571Z,27.00
2017-07-20T09:36:52.138Z,27.00
2017-07-20T09:39:19.681Z,27.70
2017-07-20T09:41:47.203Z,27.90
2017-07-20T09:44:14.755Z,28.00
2017-07-20T09:46:42.305Z,27.70
2017-07-20T09:49:09.859Z,28.00
2017-07-20T09:51:37.421Z,27.50
2017-07-20T09:54:04.968Z,27.00
2017-07-20T09:56:32.507Z,27.30
2017-07-20T09:59:00.050Z,27.30
2017-07-20T10:01:28.347Z,28.60
2017-07-20T10:03:55.867Z,28.20
2017-07-20T10:06:23.432Z,28.80
2017-07-20T10:11:19.870Z,28.30
2017-07-20T10:13:47.423Z,28.70
2017-07-20T10:16:16.491Z,28.60
2017-07-20T10:18:44.035Z,28.90
2017-07-20T10:21:12.714Z,27.80
2017-07-20T10:23:40.249Z,27.60
2017-07-20T10:26:08.570Z,27.90
2017-07-20T10:28:36.104Z,27.70
2017-07-20T12:32:40.443Z,29.80
2017-07-20T12:45:04.059Z,30.20
2017-07-20T12:47:31.662Z,30.80
2017-07-20T14:16:52.207Z,28.40
